createdAt,value
2018-01-26T00:01:23.274Z,1.50
2018-01-26T00:03:51.335Z,1.50
2018-01-26T00:06:19.322Z,1.50
2018-01-26T00:08:47.216Z,1.50
2018-01-26T00:11:15.142Z,1.50
2018-01-26T00:13:43.269Z,1.50
2018-01-26T00:16:11.227Z,1.50
2018-01-26T00:18:39.195Z,1.60
2018-01-26T00:21:07.064Z,1.60
2018-01-26T00:23:35.032Z,1.60
2018-01-26T00:26:02.942Z,1.60
2018-01-26T00:28:31.689Z,1.50
2018-01-26T00:30:59.820Z,1.50
2018-01-26T00:33:27.626Z,1.50
2018-01-26T00:35:55.587Z,1.40
2018-01-26T00:38:23.606Z,1.40
2018-01-26T00:40:52.250Z,1.40
2018-01-26T00:43:20.127Z,1.40
2018-01-26T00:45:48.006Z,1.40
2018-01-26T00:48:15.853Z,1.40
2018-01-26T00:50:43.718Z,1.50
2018-01-26T00:53:11.691Z,1.50
2018-01-26T00:55:39.555Z,1.60
2018-01-26T00:58:07.526Z,1.60
2018-01-26T01:00:35.493Z,1.60
2018-01-26T01:03:03.634Z,1.70
2018-01-26T01:05:31.536Z,1.70
2018-01-26T01:07:59.451Z,1.70
2018-01-26T01:10:28.202Z,1.70
2018-01-26T01:12:56.009Z,1.70
2018-01-26T01:15:24.714Z,1.70
2018-01-26T01:17:52.566Z,1.70
2018-01-26T01:20:20.375Z,1.70
2018-01-26T01:22:48.255Z,1.70
2018-01-26T01:25:16.312Z,1.70
2018-01-26T01:27:44.283Z,1.70
2018-01-26T01:30:12.630Z,1.60
2018-01-26T01:32:40.430Z,1.60
2018-01-26T01:35:08.342Z,1.60
2018-01-26T01:37:37.085Z,1.60
2018-01-26T01:40:04.845Z,1.60
2018-01-26T01:42:32.817Z,1.60
2018-01-26T01:45:00.681Z,1.50
2018-01-26T01:47:28.622Z,1.50
2018-01-26T01:49:56.722Z,1.50
2018-01-26T01:52:24.795Z,1.60
2018-01-26T01:54:52.670Z,1.60
2018-01-26T01:57:20.529Z,1.60
2018-01-26T01:59:48.498Z,1.60
2018-01-26T02:02:16.386Z,1.60
2018-01-26T02:04:44.294Z,1.60
2018-01-26T02:07:12.202Z,1.60
2018-01-26T02:09:40.091Z,1.60
2018-01-26T02:12:09.779Z,1.60
2018-01-26T02:14:37.646Z,1.60
2018-01-26T02:17:05.513Z,1.60
2018-01-26T02:19:33.378Z,1.60
2018-01-26T02:22:01.246Z,1.60
2018-01-26T02:24:29.011Z,1.50
2018-01-26T02:26:57.089Z,1.50
2018-01-26T02:29:25.069Z,1.50
2018-01-26T02:31:53.123Z,1.50
2018-01-26T02:34:21.475Z,1.50
2018-01-26T02:36:49.412Z,1.50
2018-01-26T02:39:17.995Z,1.40
2018-01-26T02:41:46.604Z,1.40
2018-01-26T02:44:14.508Z,1.40
2018-01-26T02:46:42.331Z,1.30
2018-01-26T02:49:10.253Z,1.30
2018-01-26T02:51:38.287Z,1.20
2018-01-26T02:54:06.179Z,1.20
2018-01-26T02:56:34.273Z,1.30
2018-01-26T02:59:02.228Z,1.20
2018-01-26T03:01:30.088Z,1.20
2018-01-26T03:03:57.906Z,1.20
2018-01-26T03:06:26.538Z,1.30
2018-01-26T03:08:54.404Z,1.20
2018-01-26T03:11:22.132Z,1.20
2018-01-26T03:13:50.145Z,1.30
2018-01-26T03:16:18.005Z,1.30
2018-01-26T03:18:45.909Z,1.30
2018-01-26T03:21:14.585Z,1.30
2018-01-26T03:23:42.536Z,1.30
2018-01-26T03:26:10.338Z,1.30
2018-01-26T03:28:39.182Z,1.30
2018-01-26T03:31:07.065Z,1.30
2018-01-26T03:33:34.852Z,1.20
2018-01-26T03:36:03.602Z,1.20
2018-01-26T03:38:31.472Z,1.20
2018-01-26T03:40:59.266Z,1.20
2018-01-26T03:43:27.101Z,1.20
2018-01-26T03:45:54.983Z,1.20
2018-01-26T03:48:23.106Z,1.10
2018-01-26T03:50:51.132Z,1.10
2018-01-26T03:53:18.981Z,1.10
2018-01-26T03:55:46.850Z,1.10
2018-01-26T03:58:15.431Z,1.10
2018-01-26T04:00:43.296Z,1.10
2018-01-26T04:03:11.469Z,1.10
2018-01-26T04:05:39.336Z,1.10
2018-01-26T04:08:07.223Z,1.10
2018-01-26T04:10:35.183Z,1.10
2018-01-26T04:13:03.071Z,1.10
2018-01-26T04:15:30.924Z,1.10
2018-01-26T04:17:58.776Z,1.10
2018-01-26T04:20:26.745Z,1.10
2018-01-26T04:22:54.713Z,1.10
2018-01-26T04:25:22.855Z,1.10
2018-01-26T04:27:50.838Z,1.10
2018-01-26T04:30:18.731Z,1.10
2018-01-26T04:32:46.699Z,1.00
2018-01-26T04:35:14.723Z,1.00
2018-01-26T04:37:42.743Z,1.00
2018-01-26T04:40:10.804Z,1.00
2018-01-26T04:42:38.680Z,1.00
2018-01-26T04:45:06.565Z,1.00
2018-01-26T04:47:34.721Z,1.00
2018-01-26T04:50:02.682Z,1.00
2018-01-26T04:52:30.470Z,1.00
2018-01-26T04:54:58.417Z,1.10
2018-01-26T04:57:26.283Z,1.10
2018-01-26T04:59:54.253Z,1.00
2018-01-26T05:02:22.243Z,1.10
2018-01-26T05:04:51.010Z,1.00
2018-01-26T05:07:18.982Z,1.00
2018-01-26T05:09:47.093Z,1.00
2018-01-26T05:12:15.667Z,1.00
2018-01-26T05:14:43.779Z,1.00
2018-01-26T05:17:11.675Z,1.00
2018-01-26T05:19:39.749Z,0.90
2018-01-26T05:22:07.820Z,1.00
2018-01-26T05:24:35.727Z,1.00
2018-01-26T05:27:04.476Z,1.00
2018-01-26T05:29:32.343Z,0.90
2018-01-26T05:32:00.413Z,0.90
2018-01-26T05:34:28.485Z,0.90
2018-01-26T05:36:56.527Z,0.90
2018-01-26T05:39:24.379Z,0.90
2018-01-26T05:41:52.354Z,0.80
2018-01-26T05:44:20.362Z,0.80
2018-01-26T05:46:48.436Z,0.80
2018-01-26T05:49:16.357Z,0.70
2018-01-26T05:51:44.374Z,0.60
2018-01-26T05:54:12.350Z,0.60
2018-01-26T05:56:40.238Z,0.60
2018-01-26T05:59:08.838Z,0.50
2018-01-26T06:01:36.639Z,0.50
2018-01-26T06:04:04.732Z,0.50
2018-01-26T06:06:32.601Z,0.40
2018-01-26T06:09:00.465Z,0.40
2018-01-26T06:11:28.538Z,0.40
2018-01-26T06:13:56.463Z,0.40
2018-01-26T06:16:24.370Z,0.40
2018-01-26T06:18:52.446Z,0.40
2018-01-26T06:21:20.313Z,0.40
2018-01-26T06:23:48.284Z,0.50
2018-01-26T06:26:16.370Z,0.50
2018-01-26T06:28:44.229Z,0.50
2018-01-26T06:31:12.395Z,0.60
2018-01-26T06:33:40.322Z,0.60
2018-01-26T06:36:08.237Z,0.70
2018-01-26T06:38:36.098Z,0.70
2018-01-26T06:41:04.068Z,0.70
2018-01-26T06:43:31.950Z,0.80
2018-01-26T06:45:59.812Z,0.80
2018-01-26T06:48:27.672Z,0.80
2018-01-26T06:50:55.550Z,0.70
2018-01-26T06:53:23.334Z,0.80
2018-01-26T06:55:51.295Z,0.80
2018-01-26T06:58:19.150Z,0.80
2018-01-26T07:00:47.104Z,0.80
2018-01-26T07:03:14.974Z,0.80
2018-01-26T07:05:42.839Z,0.80
2018-01-26T07:08:10.808Z,0.80
2018-01-26T07:10:38.690Z,0.70
2018-01-26T07:13:07.259Z,0.60
2018-01-26T07:15:35.290Z,0.60
2018-01-26T07:18:03.198Z,0.70
2018-01-26T07:20:31.084Z,0.60
2018-01-26T07:22:59.136Z,0.60
2018-01-26T07:25:27.004Z,0.70
2018-01-26T07:27:55.180Z,0.90
2018-01-26T07:30:23.150Z,1.10
2018-01-26T07:32:51.178Z,1.10
2018-01-26T07:35:18.943Z,1.20
2018-01-26T07:37:47.070Z,1.20
2018-01-26T07:40:15.740Z,1.30
2018-01-26T07:42:43.623Z,1.30
2018-01-26T07:45:11.726Z,1.30
2018-01-26T07:47:40.371Z,1.40
2018-01-26T07:50:08.205Z,1.40
2018-01-26T07:52:36.111Z,1.50
2018-01-26T07:55:04.070Z,1.60
2018-01-26T07:57:31.937Z,1.60
2018-01-26T07:59:59.746Z,1.60
2018-01-26T08:02:28.573Z,1.60
2018-01-26T08:04:56.458Z,1.70
2018-01-26T08:07:24.325Z,1.70
2018-01-26T08:09:52.294Z,1.80
2018-01-26T08:12:20.161Z,1.80
2018-01-26T08:14:48.114Z,1.90
2018-01-26T08:17:16.035Z,2.00
2018-01-26T08:19:44.684Z,2.20
2018-01-26T08:22:12.550Z,2.20
2018-01-26T08:24:40.518Z,2.20
2018-01-26T08:27:08.448Z,2.30
2018-01-26T08:29:36.354Z,2.30
2018-01-26T08:32:04.164Z,2.30
2018-01-26T08:34:31.988Z,2.20
2018-01-26T08:36:59.934Z,2.20
2018-01-26T08:39:28.028Z,2.20
2018-01-26T08:41:55.931Z,2.20
2018-01-26T08:44:23.864Z,2.30
2018-01-26T08:46:51.841Z,2.30
2018-01-26T08:49:19.741Z,2.40
2018-01-26T08:51:48.490Z,2.30
2018-01-26T08:54:16.358Z,2.30
2018-01-26T08:56:44.102Z,2.30
2018-01-26T08:59:12.194Z,2.30
2018-01-26T09:01:40.059Z,2.30
2018-01-26T09:04:07.786Z,2.30
2018-01-26T09:06:35.631Z,2.30
2018-01-26T09:09:04.376Z,2.20
2018-01-26T09:11:32.317Z,2.20
2018-01-26T09:14:00.109Z,2.30
2018-01-26T09:16:28.014Z,2.50
2018-01-26T09:18:56.804Z,2.60
2018-01-26T09:21:25.893Z,2.60
2018-01-26T09:23:54.146Z,2.70
2018-01-26T09:26:22.006Z,2.70
2018-01-26T09:28:49.841Z,2.80
2018-01-26T09:31:17.843Z,2.90
2018-01-26T09:33:45.607Z,3.00
2018-01-26T09:36:13.462Z,3.10
2018-01-26T09:38:41.443Z,3.20
2018-01-26T09:41:09.326Z,3.40
2018-01-26T09:43:37.186Z,3.50
2018-01-26T09:46:05.044Z,3.50
2018-01-26T09:48:33.194Z,3.60
2018-01-26T09:51:01.406Z,3.60
2018-01-26T09:53:29.259Z,3.60
2018-01-26T09:55:57.124Z,3.60
2018-01-26T09:58:25.175Z,3.70
2018-01-26T10:00:53.781Z,3.70
2018-01-26T10:03:21.751Z,3.70
2018-01-26T10:05:49.633Z,3.80
2018-01-26T10:08:17.373Z,3.80
2018-01-26T10:10:45.357Z,3.90
2018-01-26T10:13:13.226Z,4.00
2018-01-26T10:15:41.158Z,4.10
2018-01-26T10:18:09.219Z,4.10
2018-01-26T10:20:37.238Z,4.20
2018-01-26T10:23:05.197Z,4.20
2018-01-26T10:25:32.894Z,4.20
2018-01-26T10:28:01.659Z,4.30
2018-01-26T10:30:29.454Z,4.30
2018-01-26T10:32:58.200Z,4.40
2018-01-26T10:35:26.003Z,4.40
2018-01-26T10:37:54.653Z,4.60
2018-01-26T10:40:22.433Z,4.60
2018-01-26T10:42:50.590Z,4.80
2018-01-26T10:45:18.626Z,5.20
2018-01-26T10:47:46.617Z,5.30
2018-01-26T10:50:14.548Z,5.30
2018-01-26T10:52:43.083Z,5.40
2018-01-26T10:55:11.051Z,5.40
2018-01-26T10:57:39.022Z,5.50
2018-01-26T11:00:06.888Z,5.60
2018-01-26T11:02:34.786Z,5.80
2018-01-26T11:05:02.625Z,6.20
2018-01-26T11:07:30.488Z,6.50
2018-01-26T11:09:58.356Z,6.80
2018-01-26T11:12:26.341Z,7.00
2018-01-26T11:14:54.200Z,7.20
2018-01-26T11:17:22.080Z,7.20
2018-01-26T11:19:50.030Z,7.30
2018-01-26T11:22:18.020Z,7.30
2018-01-26T11:24:45.745Z,7.40
2018-01-26T11:27:13.626Z,7.50
2018-01-26T11:29:41.369Z,7.70
2018-01-26T11:32:09.158Z,7.90
2018-01-26T11:34:37.026Z,8.20
2018-01-26T11:37:04.890Z,8.50
2018-01-26T11:39:33.154Z,8.70
2018-01-26T11:42:01.036Z,8.90
2018-01-26T11:44:28.903Z,9.20
2018-01-26T11:46:56.807Z,9.40
2018-01-26T11:49:25.706Z,9.50
2018-01-26T11:51:54.345Z,9.60
2018-01-26T11:54:22.383Z,9.50
2018-01-26T11:56:50.174Z,9.50
2018-01-26T11:59:18.202Z,9.50
2018-01-26T12:01:46.910Z,9.30
2018-01-26T12:04:14.731Z,9.30
2018-01-26T12:06:42.782Z,9.20
2018-01-26T12:09:10.583Z,9.20
2018-01-26T12:11:39.337Z,9.20
2018-01-26T12:14:07.535Z,9.20
2018-01-26T12:16:35.574Z,9.30
2018-01-26T12:19:03.725Z,9.40
2018-01-26T12:21:31.514Z,9.50
2018-01-26T12:23:59.778Z,9.50
2018-01-26T12:26:29.168Z,9.50
2018-01-26T12:28:58.857Z,9.50
2018-01-26T12:31:28.041Z,9.50
2018-01-26T12:33:57.254Z,9.50
2018-01-26T12:36:25.407Z,9.50
2018-01-26T12:38:54.182Z,9.50
2018-01-26T12:41:22.091Z,9.50
2018-01-26T12:43:49.998Z,9.50
2018-01-26T12:46:17.843Z,9.50
2018-01-26T12:48:45.862Z,9.40
2018-01-26T12:51:14.630Z,9.60
2018-01-26T12:53:42.597Z,9.60
2018-01-26T12:56:10.754Z,9.70
2018-01-26T12:58:38.640Z,9.80
2018-01-26T13:01:06.508Z,9.80
2018-01-26T13:03:34.679Z,9.70
2018-01-26T13:06:02.547Z,9.50
2018-01-26T13:08:30.411Z,9.50
2018-01-26T13:10:58.375Z,9.40
2018-01-26T13:13:26.251Z,9.40
2018-01-26T13:15:54.213Z,9.50
2018-01-26T13:18:22.284Z,9.60
2018-01-26T13:20:50.544Z,9.60
2018-01-26T13:23:18.338Z,9.50
2018-01-26T13:25:46.402Z,9.70
2018-01-26T13:28:14.268Z,9.70
2018-01-26T13:30:42.588Z,9.80
2018-01-26T13:33:11.335Z,9.50
2018-01-26T13:35:39.610Z,9.50
2018-01-26T13:38:07.578Z,9.50
2018-01-26T13:40:35.487Z,9.60
2018-01-26T13:43:04.250Z,9.60
2018-01-26T13:45:33.123Z,9.50
2018-01-26T13:48:01.043Z,9.50
2018-01-26T13:50:28.856Z,9.30
2018-01-26T13:52:56.823Z,9.40
2018-01-26T13:55:24.808Z,9.40
2018-01-26T13:57:52.965Z,9.60
2018-01-26T14:00:20.976Z,9.70
2018-01-26T14:02:49.932Z,9.70
2018-01-26T14:05:17.904Z,9.70
2018-01-26T14:07:45.887Z,9.80
2018-01-26T14:10:13.959Z,9.70
2018-01-26T14:12:41.807Z,9.80
2018-01-26T14:15:09.693Z,9.80
2018-01-26T14:17:39.692Z,9.80
2018-01-26T14:20:07.608Z,9.70
2018-01-26T14:22:36.307Z,9.60
2018-01-26T14:25:04.135Z,9.60
2018-01-26T14:27:32.695Z,9.60
2018-01-26T14:30:00.668Z,9.60
2018-01-26T14:32:28.530Z,9.70
2018-01-26T14:34:57.524Z,9.70
2018-01-26T14:37:25.757Z,9.80
2018-01-26T14:39:54.785Z,9.70
2018-01-26T14:42:22.678Z,9.70
2018-01-26T14:44:50.839Z,9.70
2018-01-26T14:47:18.805Z,9.60
2018-01-26T14:49:46.995Z,9.60
2018-01-26T14:52:15.051Z,9.60
2018-01-26T14:54:42.981Z,9.50
2018-01-26T14:57:11.041Z,9.50
2018-01-26T14:59:39.709Z,9.40
2018-01-26T15:02:08.342Z,9.30
2018-01-26T15:04:36.388Z,9.30
2018-01-26T15:07:04.404Z,9.30
2018-01-26T15:09:32.296Z,9.20
2018-01-26T15:12:00.917Z,9.10
2018-01-26T15:14:28.985Z,9.10
2018-01-26T15:16:57.387Z,9.10
2018-01-26T15:19:25.416Z,9.10
2018-01-26T15:21:54.126Z,9.30
2018-01-26T15:24:22.320Z,9.30
2018-01-26T15:26:50.513Z,9.40
2018-01-26T15:29:18.582Z,9.50
2018-01-26T15:31:46.603Z,9.60
2018-01-26T15:34:15.309Z,9.60
2018-01-26T15:36:43.318Z,9.60
2018-01-26T15:39:11.179Z,9.70
2018-01-26T15:41:39.045Z,9.60
2018-01-26T15:44:08.586Z,9.70
2018-01-26T15:46:37.922Z,9.60
2018-01-26T15:49:07.397Z,9.60
2018-01-26T15:51:36.258Z,9.60
2018-01-26T15:54:04.430Z,9.60
2018-01-26T15:56:32.951Z,9.60
2018-01-26T15:59:01.805Z,9.60
2018-01-26T16:01:29.667Z,9.60
2018-01-26T16:03:57.750Z,9.50
2018-01-26T16:06:25.778Z,9.50
2018-01-26T16:08:53.689Z,9.40
2018-01-26T16:11:21.750Z,9.50
2018-01-26T16:13:49.888Z,9.50
2018-01-26T16:16:17.817Z,9.50
2018-01-26T16:18:45.754Z,9.50
2018-01-26T16:21:13.848Z,9.50
2018-01-26T16:23:42.581Z,9.40
2018-01-26T16:26:10.666Z,9.30
2018-01-26T16:28:38.665Z,9.20
2018-01-26T16:31:06.645Z,9.00
2018-01-26T16:33:35.300Z,8.50
2018-01-26T16:36:03.279Z,8.50
2018-01-26T16:38:31.249Z,8.30
2018-01-26T16:40:59.330Z,8.00
2018-01-26T16:43:27.328Z,7.80
2018-01-26T16:45:55.981Z,7.30
2018-01-26T16:48:24.157Z,7.30
2018-01-26T16:50:52.231Z,7.10
2018-01-26T16:53:20.194Z,6.90
2018-01-26T16:55:48.370Z,6.80
2018-01-26T16:58:16.918Z,6.70
2018-01-26T17:00:44.954Z,6.50
2018-01-26T17:03:13.816Z,6.20
2018-01-26T17:05:41.676Z,6.20
2018-01-26T17:08:10.290Z,6.00
2018-01-26T17:10:39.611Z,5.80
2018-01-26T17:13:08.467Z,5.70
2018-01-26T17:15:36.326Z,5.70
2018-01-26T17:18:04.363Z,5.60
2018-01-26T17:20:32.264Z,5.50
2018-01-26T17:23:00.514Z,5.50
2018-01-26T17:25:28.400Z,5.40
2018-01-26T17:27:56.320Z,5.30
2018-01-26T17:30:25.056Z,5.00
2018-01-26T17:32:53.133Z,5.00
2018-01-26T17:35:20.998Z,4.90
2018-01-26T17:37:49.157Z,4.70
2018-01-26T17:40:17.036Z,4.70
2018-01-26T17:42:45.211Z,4.60
2018-01-26T17:45:13.385Z,4.50
2018-01-26T17:47:41.498Z,4.50
2018-01-26T17:50:10.251Z,4.50
2018-01-26T17:52:38.215Z,4.50
2018-01-26T17:55:06.276Z,4.50
2018-01-26T17:57:34.283Z,4.50
2018-01-26T18:00:03.251Z,4.30
2018-01-26T18:02:31.249Z,4.30
2018-01-26T18:04:59.288Z,4.30
2018-01-26T18:07:27.257Z,4.20
2018-01-26T18:09:55.330Z,4.20
2018-01-26T18:12:23.399Z,4.20
2018-01-26T18:14:51.295Z,4.20
2018-01-26T18:17:19.460Z,4.20
2018-01-26T18:19:47.532Z,4.10
2018-01-26T18:22:15.469Z,4.00
2018-01-26T18:24:43.350Z,3.90
2018-01-26T18:27:11.366Z,3.90
2018-01-26T18:29:40.021Z,3.90
2018-01-26T18:32:07.886Z,3.90
2018-01-26T18:34:35.841Z,3.80
2018-01-26T18:37:04.741Z,3.70
2018-01-26T18:39:32.805Z,3.70
2018-01-26T18:42:00.772Z,3.70
2018-01-26T18:44:28.643Z,3.60
2018-01-26T18:46:56.693Z,3.60
2018-01-26T18:49:24.772Z,3.60
2018-01-26T18:51:52.759Z,3.50
2018-01-26T18:54:20.728Z,3.60
2018-01-26T18:56:48.911Z,3.60
2018-01-26T18:59:16.865Z,3.60
2018-01-26T19:01:44.958Z,3.50
2018-01-26T19:04:13.219Z,3.50
2018-01-26T19:06:41.086Z,3.40
2018-01-26T19:09:08.954Z,3.40
2018-01-26T19:11:36.937Z,3.40
2018-01-26T19:14:05.822Z,3.30
2018-01-26T19:16:33.696Z,3.30
2018-01-26T19:19:01.646Z,3.30
2018-01-26T19:21:29.726Z,3.30
2018-01-26T19:23:57.684Z,3.30
2018-01-26T19:26:25.765Z,3.20
2018-01-26T19:28:53.625Z,3.10
2018-01-26T19:31:21.593Z,3.20
2018-01-26T19:33:49.982Z,3.20
2018-01-26T19:36:17.738Z,3.10
2018-01-26T19:38:45.713Z,3.10
2018-01-26T19:41:13.890Z,3.00
2018-01-26T19:43:41.862Z,3.00
2018-01-26T19:46:09.938Z,3.00
2018-01-26T19:48:38.018Z,2.90
2018-01-26T19:51:06.936Z,2.80
2018-01-26T19:53:35.592Z,2.80
2018-01-26T19:56:03.465Z,2.70
2018-01-26T19:58:31.414Z,2.70
2018-01-26T20:00:59.385Z,2.70
2018-01-26T20:03:32.577Z,2.70
2018-01-26T20:06:07.001Z,2.60
2018-01-26T20:08:40.732Z,2.60
2018-01-26T20:11:09.496Z,2.50
2018-01-26T20:13:37.560Z,2.50
2018-01-26T20:16:05.751Z,2.50
2018-01-26T20:18:33.701Z,2.50
2018-01-26T20:21:01.685Z,2.50
2018-01-26T20:23:29.760Z,2.40
2018-01-26T20:25:57.647Z,2.40
2018-01-26T20:28:26.336Z,2.30
2018-01-26T20:30:55.079Z,2.30
2018-01-26T20:33:22.950Z,2.30
2018-01-26T20:35:50.929Z,2.30
2018-01-26T20:38:19.691Z,2.30
2018-01-26T20:40:47.578Z,2.30
2018-01-26T20:43:15.648Z,2.20
2018-01-26T20:45:43.586Z,2.20
2018-01-26T20:48:11.646Z,2.10
2018-01-26T20:50:39.596Z,2.00
2018-01-26T20:53:08.346Z,1.90
2018-01-26T20:55:36.436Z,1.90
2018-01-26T20:58:04.380Z,1.90
2018-01-26T21:00:32.358Z,1.90
2018-01-26T21:03:00.498Z,1.90
2018-01-26T21:05:28.493Z,2.00
2018-01-26T21:07:56.618Z,1.90
2018-01-26T21:10:25.511Z,2.00
2018-01-26T21:12:53.431Z,1.90
2018-01-26T21:15:21.402Z,2.00
2018-01-26T21:17:49.474Z,2.00
2018-01-26T21:20:17.441Z,2.00
2018-01-26T21:22:45.686Z,2.00
2018-01-26T21:25:13.750Z,1.90
2018-01-26T21:27:41.975Z,1.90
2018-01-26T21:30:10.242Z,1.90
2018-01-26T21:32:38.479Z,1.90
2018-01-26T21:35:06.590Z,2.00
2018-01-26T21:37:34.655Z,1.90
2018-01-26T21:40:02.634Z,2.00
2018-01-26T21:42:30.676Z,2.00
2018-01-26T21:44:58.590Z,2.00
2018-01-26T21:47:26.566Z,2.00
2018-01-26T21:49:55.327Z,2.20
2018-01-26T21:52:23.291Z,2.20
2018-01-26T21:54:51.445Z,2.30
2018-01-26T21:57:19.380Z,2.30
2018-01-26T21:59:48.130Z,2.40
2018-01-26T22:02:16.322Z,2.40
2018-01-26T22:04:50.003Z,2.30
2018-01-26T22:07:23.707Z,2.30
2018-01-26T22:09:51.970Z,2.20
2018-01-26T22:12:19.844Z,2.00
2018-01-26T22:14:47.690Z,2.00
2018-01-26T22:17:15.682Z,2.00
2018-01-26T22:19:43.752Z,1.90
2018-01-26T22:22:11.804Z,2.00
2018-01-26T22:24:39.696Z,2.10
2018-01-26T22:27:07.557Z,2.20
2018-01-26T22:29:35.498Z,2.20
2018-01-26T22:32:03.502Z,2.30
2018-01-26T22:34:31.370Z,2.30
2018-01-26T22:36:59.361Z,2.40
2018-01-26T22:39:27.303Z,2.40
2018-01-26T22:41:55.474Z,2.40
2018-01-26T22:44:23.479Z,2.50
2018-01-26T22:46:52.453Z,2.60
2018-01-26T22:49:20.539Z,2.50
2018-01-26T22:51:49.195Z,2.60
2018-01-26T22:54:17.582Z,2.60
2018-01-26T22:56:45.448Z,2.50
2018-01-26T22:59:13.410Z,2.40
2018-01-26T23:01:41.282Z,2.30
2018-01-26T23:04:09.154Z,2.20
2018-01-26T23:06:37.257Z,2.10
2018-01-26T23:09:05.909Z,1.80
2018-01-26T23:11:33.806Z,1.80
2018-01-26T23:14:02.422Z,1.80
2018-01-26T23:16:30.290Z,1.80
2018-01-26T23:18:58.148Z,1.70
2018-01-26T23:21:26.148Z,1.70
2018-01-26T23:23:54.230Z,1.80
2018-01-26T23:26:22.318Z,1.80
2018-01-26T23:28:50.310Z,1.70
2018-01-26T23:31:18.269Z,1.70
2018-01-26T23:33:46.434Z,1.60
2018-01-26T23:36:14.336Z,1.60
2018-01-26T23:38:42.410Z,1.60
2018-01-26T23:41:10.505Z,1.60
2018-01-26T23:43:38.360Z,1.60
2018-01-26T23:46:06.573Z,1.50
2018-01-26T23:48:34.539Z,1.50
2018-01-26T23:51:02.464Z,1.50
2018-01-26T23:53:30.486Z,1.50
2018-01-26T23:55:58.454Z,1.60
2018-01-26T23:58:26.571Z,1.70
